sensor_id;sensor_type;location;lat;lon;timestamp;pressure;altitude;pressure_sealevel;temperature;humidity
80759;BME280;70150;45.582;10.178;2023-11-21T00:00:29;99372.47;;;11.67;73.45
80759;BME280;70150;45.582;10.178;2023-11-21T00:02:55;99380.50;;;11.64;73.68
80759;BME280;70150;45.582;10.178;2023-11-21T00:05:20;99380.13;;;11.65;74.02
80759;BME280;70150;45.582;10.178;2023-11-21T00:07:48;99382.72;;;11.58;74.31
80759;BME280;70150;45.582;10.178;2023-11-21T00:10:14;99373.59;;;11.66;73.89
80759;BME280;70150;45.582;10.178;2023-11-21T00:12:41;99370.16;;;11.66;73.74
80759;BME280;70150;45.582;10.178;2023-11-21T00:15:10;99364.88;;;11.76;72.10
80759;BME280;70150;45.582;10.178;2023-11-21T00:17:37;99370.56;;;11.71;72.52
80759;BME280;70150;45.582;10.178;2023-11-21T00:20:04;99374.78;;;11.72;73.28
80759;BME280;70150;45.582;10.178;2023-11-21T00:22:34;99373.22;;;11.68;73.24
80759;BME280;70150;45.582;10.178;2023-11-21T00:25:00;99377.53;;;11.76;73.35
80759;BME280;70150;45.582;10.178;2023-11-21T00:27:29;99370.16;;;11.69;73.38
80759;BME280;70150;45.582;10.178;2023-11-21T00:29:55;99363.38;;;11.82;73.10
80759;BME280;70150;45.582;10.178;2023-11-21T00:32:21;99369.66;;;11.57;73.18
80759;BME280;70150;45.582;10.178;2023-11-21T00:34:47;99382.50;;;11.34;74.23
80759;BME280;70150;45.582;10.178;2023-11-21T00:37:12;99383.53;;;11.26;74.45
80759;BME280;70150;45.582;10.178;2023-11-21T00:39:38;99384.06;;;11.38;74.00
80759;BME280;70150;45.582;10.178;2023-11-21T00:42:04;99378.28;;;11.33;73.26
80759;BME280;70150;45.582;10.178;2023-11-21T00:44:30;99380.94;;;11.33;72.88
80759;BME280;70150;45.582;10.178;2023-11-21T00:46:56;99371.50;;;11.49;72.84
80759;BME280;70150;45.582;10.178;2023-11-21T00:49:21;99368.59;;;11.65;71.60
80759;BME280;70150;45.582;10.178;2023-11-21T00:51:47;99356.81;;;11.76;71.34
80759;BME280;70150;45.582;10.178;2023-11-21T00:54:15;99356.47;;;11.81;71.53
80759;BME280;70150;45.582;10.178;2023-11-21T00:56:43;99362.63;;;11.85;71.65
80759;BME280;70150;45.582;10.178;2023-11-21T00:59:13;99363.09;;;11.94;72.03
80759;BME280;70150;45.582;10.178;2023-11-21T01:01:39;99367.72;;;11.97;71.94
80759;BME280;70150;45.582;10.178;2023-11-21T01:04:04;99355.44;;;12.00;72.18
80759;BME280;70150;45.582;10.178;2023-11-21T01:06:34;99352.00;;;12.03;71.02
80759;BME280;70150;45.582;10.178;2023-11-21T01:08:59;99338.16;;;12.01;71.38
80759;BME280;70150;45.582;10.178;2023-11-21T01:11:25;99343.13;;;11.99;71.88
80759;BME280;70150;45.582;10.178;2023-11-21T01:13:51;99345.78;;;11.95;71.20
80759;BME280;70150;45.582;10.178;2023-11-21T01:16:18;99348.13;;;11.97;71.74
80759;BME280;70150;45.582;10.178;2023-11-21T01:18:44;99348.19;;;12.04;71.67
80759;BME280;70150;45.582;10.178;2023-11-21T01:21:10;99353.13;;;11.98;70.22
80759;BME280;70150;45.582;10.178;2023-11-21T01:23:35;99352.38;;;12.01;70.29
80759;BME280;70150;45.582;10.178;2023-11-21T01:26:01;99352.03;;;12.06;69.20
80759;BME280;70150;45.582;10.178;2023-11-21T01:28:29;99351.63;;;12.04;72.12
80759;BME280;70150;45.582;10.178;2023-11-21T01:30:55;99348.19;;;12.04;71.53
80759;BME280;70150;45.582;10.178;2023-11-21T01:33:22;99342.03;;;12.03;71.57
80759;BME280;70150;45.582;10.178;2023-11-21T01:35:50;99338.94;;;12.01;72.23
80759;BME280;70150;45.582;10.178;2023-11-21T01:38:16;99339.66;;;11.95;72.55
80759;BME280;70150;45.582;10.178;2023-11-21T01:40:47;99346.25;;;12.01;72.08
80759;BME280;70150;45.582;10.178;2023-11-21T01:43:13;99340.41;;;11.95;72.96
80759;BME280;70150;45.582;10.178;2023-11-21T01:45:39;99338.09;;;11.90;72.27
80759;BME280;70150;45.582;10.178;2023-11-21T01:48:04;99336.56;;;11.93;72.44
80759;BME280;70150;45.582;10.178;2023-11-21T01:50:32;99332.34;;;11.95;72.39
80759;BME280;70150;45.582;10.178;2023-11-21T01:52:59;99316.22;;;11.95;72.29
80759;BME280;70150;45.582;10.178;2023-11-21T01:55:26;99322.75;;;11.94;72.41
80759;BME280;70150;45.582;10.178;2023-11-21T01:57:53;99318.84;;;11.81;70.35
80759;BME280;70150;45.582;10.178;2023-11-21T02:00:18;99315.03;;;11.86;70.03
80759;BME280;70150;45.582;10.178;2023-11-21T02:02:45;99307.34;;;11.84;70.95
80759;BME280;70150;45.582;10.178;2023-11-21T02:05:12;99303.16;;;11.90;71.00
80759;BME280;70150;45.582;10.178;2023-11-21T02:07:39;99315.03;;;11.89;71.66
80759;BME280;70150;45.582;10.178;2023-11-21T02:10:07;99315.09;;;11.96;72.24
80759;BME280;70150;45.582;10.178;2023-11-21T02:12:35;99312.03;;;11.98;72.81
80759;BME280;70150;45.582;10.178;2023-11-21T02:15:04;99314.22;;;11.82;73.20
80759;BME280;70150;45.582;10.178;2023-11-21T02:17:35;99313.50;;;11.88;72.93
80759;BME280;70150;45.582;10.178;2023-11-21T02:20:00;99307.41;;;11.95;73.42
80759;BME280;70150;45.582;10.178;2023-11-21T02:22:29;99305.09;;;11.97;73.33
80759;BME280;70150;45.582;10.178;2023-11-21T02:24:56;99303.56;;;11.96;73.23
80759;BME280;70150;45.582;10.178;2023-11-21T02:27:23;99300.53;;;12.01;73.25
80759;BME280;70150;45.582;10.178;2023-11-21T02:29:49;99300.50;;;11.97;74.05
80759;BME280;70150;45.582;10.178;2023-11-21T02:32:15;99293.97;;;11.98;73.72
80759;BME280;70150;45.582;10.178;2023-11-21T02:34:42;99282.81;;;11.93;72.55
80759;BME280;70150;45.582;10.178;2023-11-21T02:37:08;99283.19;;;11.91;73.28
80759;BME280;70150;45.582;10.178;2023-11-21T02:39:35;99288.22;;;11.96;72.63
80759;BME280;70150;45.582;10.178;2023-11-21T02:42:01;99280.91;;;11.97;73.40
80759;BME280;70150;45.582;10.178;2023-11-21T02:44:26;99274.78;;;12.00;72.41
80759;BME280;70150;45.582;10.178;2023-11-21T02:46:52;99273.94;;;11.85;73.45
80759;BME280;70150;45.582;10.178;2023-11-21T02:49:17;99269.31;;;11.82;73.08
80759;BME280;70150;45.582;10.178;2023-11-21T02:51:45;99261.28;;;11.89;73.41
80759;BME280;70150;45.582;10.178;2023-11-21T02:54:11;99254.41;;;11.95;73.05
80759;BME280;70150;45.582;10.178;2023-11-21T02:56:36;99247.47;;;11.94;72.63
80759;BME280;70150;45.582;10.178;2023-11-21T02:59:02;99249.00;;;11.95;73.60
80759;BME280;70150;45.582;10.178;2023-11-21T03:01:28;99239.81;;;12.00;73.52
80759;BME280;70150;45.582;10.178;2023-11-21T03:03:54;99251.75;;;12.02;72.68
80759;BME280;70150;45.582;10.178;2023-11-21T03:06:21;99251.31;;;11.93;72.66
80759;BME280;70150;45.582;10.178;2023-11-21T03:08:47;99250.94;;;11.95;72.78
80759;BME280;70150;45.582;10.178;2023-11-21T03:11:13;99247.47;;;11.94;73.56
80759;BME280;70150;45.582;10.178;2023-11-21T03:13:40;99243.25;;;11.93;73.39
80759;BME280;70150;45.582;10.178;2023-11-21T03:16:08;99246.72;;;11.94;73.82
80759;BME280;70150;45.582;10.178;2023-11-21T03:18:34;99244.03;;;11.97;73.69
80759;BME280;70150;45.582;10.178;2023-11-21T03:20:59;99234.03;;;11.94;74.56
80759;BME280;70150;45.582;10.178;2023-11-21T03:23:25;99237.13;;;11.96;74.43
80759;BME280;70150;45.582;10.178;2023-11-21T03:25:51;99229.00;;;11.89;74.44
80759;BME280;70150;45.582;10.178;2023-11-21T03:28:16;99227.84;;;11.80;74.39
80759;BME280;70150;45.582;10.178;2023-11-21T03:30:42;99231.47;;;11.54;74.36
80759;BME280;70150;45.582;10.178;2023-11-21T03:33:10;99243.00;;;11.58;74.42
80759;BME280;70150;45.582;10.178;2023-11-21T03:35:36;99239.44;;;11.40;75.17
80759;BME280;70150;45.582;10.178;2023-11-21T03:38:02;99236.44;;;11.52;74.56
80759;BME280;70150;45.582;10.178;2023-11-21T03:40:29;99240.41;;;11.65;74.37
80759;BME280;70150;45.582;10.178;2023-11-21T03:42:56;99227.34;;;11.64;75.24
80759;BME280;70150;45.582;10.178;2023-11-21T03:45:22;99230.44;;;11.69;75.01
80759;BME280;70150;45.582;10.178;2023-11-21T03:47:48;99238.13;;;11.71;73.98
80759;BME280;70150;45.582;10.178;2023-11-21T03:50:14;99247.66;;;11.61;74.50
80759;BME280;70150;45.582;10.178;2023-11-21T03:52:40;99250.41;;;11.68;74.82
80759;BME280;70150;45.582;10.178;2023-11-21T03:55:05;99251.94;;;11.66;74.70
80759;BME280;70150;45.582;10.178;2023-11-21T03:57:34;99243.41;;;11.60;73.79
80759;BME280;70150;45.582;10.178;2023-11-21T04:00:02;99249.06;;;11.48;73.24
80759;BME280;70150;45.582;10.178;2023-11-21T04:02:29;99254.09;;;11.53;72.80
80759;BME280;70150;45.582;10.178;2023-11-21T04:04:57;99256.44;;;11.58;71.95
80759;BME280;70150;45.582;10.178;2023-11-21T04:07:22;99263.75;;;11.61;72.76
80759;BME280;70150;45.582;10.178;2023-11-21T04:09:48;99256.56;;;11.69;71.90
80759;BME280;70150;45.582;10.178;2023-11-21T04:12:13;99241.22;;;11.73;71.45
80759;BME280;70150;45.582;10.178;2023-11-21T04:14:39;99255.78;;;11.68;72.21
80759;BME280;70150;45.582;10.178;2023-11-21T04:17:05;99252.75;;;11.73;72.34
80759;BME280;70150;45.582;10.178;2023-11-21T04:19:31;99240.84;;;11.74;71.18
80759;BME280;70150;45.582;10.178;2023-11-21T04:21:59;99245.03;;;11.68;70.87
80759;BME280;70150;45.582;10.178;2023-11-21T04:24:25;99246.19;;;11.71;71.16
80759;BME280;70150;45.582;10.178;2023-11-21T04:26:51;99246.53;;;11.62;69.63
80759;BME280;70150;45.582;10.178;2023-11-21T04:29:16;99250.66;;;11.56;68.38
80759;BME280;70150;45.582;10.178;2023-11-21T04:31:42;99249.13;;;11.59;68.55
80759;BME280;70150;45.582;10.178;2023-11-21T04:34:08;99241.88;;;11.59;66.88
80759;BME280;70150;45.582;10.178;2023-11-21T04:36:34;99245.81;;;11.69;66.96
80759;BME280;70150;45.582;10.178;2023-11-21T04:39:00;99232.34;;;11.65;66.54
80759;BME280;70150;45.582;10.178;2023-11-21T04:41:26;99234.22;;;11.61;66.37
80759;BME280;70150;45.582;10.178;2023-11-21T04:43:52;99230.03;;;11.64;66.37
80759;BME280;70150;45.582;10.178;2023-11-21T04:46:18;99239.34;;;11.77;66.49
80759;BME280;70150;45.582;10.178;2023-11-21T04:48:44;99232.84;;;11.85;65.97
80759;BME280;70150;45.582;10.178;2023-11-21T04:51:09;99233.22;;;11.87;66.53
80759;BME280;70150;45.582;10.178;2023-11-21T04:53:36;99238.50;;;11.66;66.27
80759;BME280;70150;45.582;10.178;2023-11-21T04:56:02;99233.34;;;11.50;66.81
80759;BME280;70150;45.582;10.178;2023-11-21T04:58:28;99247.53;;;11.47;67.56
80759;BME280;70150;45.582;10.178;2023-11-21T05:00:54;99236.41;;;11.49;66.91
80759;BME280;70150;45.582;10.178;2023-11-21T05:03:20;99245.56;;;11.37;66.98
80759;BME280;70150;45.582;10.178;2023-11-21T05:05:45;99242.78;;;11.30;66.31
80759;BME280;70150;45.582;10.178;2023-11-21T05:08:13;99240.47;;;11.25;66.91
80759;BME280;70150;45.582;10.178;2023-11-21T05:10:39;99234.59;;;11.13;67.48
80759;BME280;70150;45.582;10.178;2023-11-21T05:13:05;99233.03;;;11.08;67.97
80759;BME280;70150;45.582;10.178;2023-11-21T05:15:35;99234.66;;;11.16;67.80
80759;BME280;70150;45.582;10.178;2023-11-21T05:18:01;99235.78;;;11.15;67.57
80759;BME280;70150;45.582;10.178;2023-11-21T05:20:29;99229.94;;;11.03;68.10
80759;BME280;70150;45.582;10.178;2023-11-21T05:22:55;99227.63;;;11.01;68.40
80759;BME280;70150;45.582;10.178;2023-11-21T05:25:20;99233.66;;;10.91;68.13
80759;BME280;70150;45.582;10.178;2023-11-21T05:27:47;99224.69;;;10.76;68.54
80759;BME280;70150;45.582;10.178;2023-11-21T05:30:13;99231.66;;;10.81;68.40
80759;BME280;70150;45.582;10.178;2023-11-21T05:32:40;99214.81;;;10.87;68.35
80759;BME280;70150;45.582;10.178;2023-11-21T05:35:09;99233.97;;;10.86;68.28
80759;BME280;70150;45.582;10.178;2023-11-21T05:37:40;99222.75;;;10.77;68.23
80759;BME280;70150;45.582;10.178;2023-11-21T05:40:07;99223.53;;;10.77;68.45
80759;BME280;70150;45.582;10.178;2023-11-21T05:42:34;99229.59;;;10.71;68.87
80759;BME280;70150;45.582;10.178;2023-11-21T05:44:59;99228.50;;;10.72;68.90
80759;BME280;70150;45.582;10.178;2023-11-21T05:47:39;99234.13;;;10.60;69.23
80759;BME280;70150;45.582;10.178;2023-11-21T05:50:06;99232.53;;;10.55;69.68
80759;BME280;70150;45.582;10.178;2023-11-21T05:52:36;99227.13;;;10.52;69.86
80759;BME280;70150;45.582;10.178;2023-11-21T05:55:03;99228.63;;;10.49;69.72
80759;BME280;70150;45.582;10.178;2023-11-21T05:57:30;99229.03;;;10.51;69.86
80759;BME280;70150;45.582;10.178;2023-11-21T05:59:56;99229.50;;;10.57;69.48
80759;BME280;70150;45.582;10.178;2023-11-21T06:02:21;99231.75;;;10.55;69.66
80759;BME280;70150;45.582;10.178;2023-11-21T06:04:47;99228.59;;;10.46;69.64
80759;BME280;70150;45.582;10.178;2023-11-21T06:07:13;99230.91;;;10.47;69.53
80759;BME280;70150;45.582;10.178;2023-11-21T06:09:38;99239.38;;;10.53;69.59
80759;BME280;70150;45.582;10.178;2023-11-21T06:12:04;99234.81;;;10.53;69.63
80759;BME280;70150;45.582;10.178;2023-11-21T06:14:31;99239.47;;;10.60;69.46
80759;BME280;70150;45.582;10.178;2023-11-21T06:16:58;99238.38;;;10.64;69.23
80759;BME280;70150;45.582;10.178;2023-11-21T06:19:24;99242.75;;;10.79;69.11
80759;BME280;70150;45.582;10.178;2023-11-21T06:21:49;99247.75;;;10.81;68.38
80759;BME280;70150;45.582;10.178;2023-11-21T06:24:15;99235.84;;;10.82;68.75
80759;BME280;70150;45.582;10.178;2023-11-21T06:26:41;99228.59;;;10.82;68.76
80759;BME280;70150;45.582;10.178;2023-11-21T06:29:07;99228.22;;;10.84;68.24
80759;BME280;70150;45.582;10.178;2023-11-21T06:31:32;99225.06;;;10.75;68.07
80759;BME280;70150;45.582;10.178;2023-11-21T06:33:58;99227.72;;;10.71;68.28
80759;BME280;70150;45.582;10.178;2023-11-21T06:36:25;99225.03;;;10.71;67.96
80759;BME280;70150;45.582;10.178;2023-11-21T06:38:52;99225.75;;;10.68;68.25
80759;BME280;70150;45.582;10.178;2023-11-21T06:41:17;99224.84;;;10.54;68.90
80759;BME280;70150;45.582;10.178;2023-11-21T06:43:43;99220.34;;;10.65;68.44
80759;BME280;70150;45.582;10.178;2023-11-21T06:46:12;99217.72;;;10.68;68.64
80759;BME280;70150;45.582;10.178;2023-11-21T06:48:42;99224.13;;;10.57;68.42
80759;BME280;70150;45.582;10.178;2023-11-21T06:51:08;99221.91;;;10.66;68.34
80759;BME280;70150;45.582;10.178;2023-11-21T06:53:37;99218.38;;;10.58;68.68
80759;BME280;70150;45.582;10.178;2023-11-21T06:56:03;99213.97;;;10.80;68.07
80759;BME280;70150;45.582;10.178;2023-11-21T06:58:29;99208.13;;;10.67;68.27
80759;BME280;70150;45.582;10.178;2023-11-21T07:00:55;99211.81;;;10.52;68.89
80759;BME280;70150;45.582;10.178;2023-11-21T07:03:20;99218.75;;;10.57;69.31
80759;BME280;70150;45.582;10.178;2023-11-21T07:05:46;99209.88;;;10.49;69.24
80759;BME280;70150;45.582;10.178;2023-11-21T07:08:11;99201.81;;;10.49;69.20
80759;BME280;70150;45.582;10.178;2023-11-21T07:10:38;99198.84;;;10.58;69.57
80759;BME280;70150;45.582;10.178;2023-11-21T07:13:03;99202.72;;;10.64;69.21
80759;BME280;70150;45.582;10.178;2023-11-21T07:15:29;99200.38;;;10.59;69.04
80759;BME280;70150;45.582;10.178;2023-11-21T07:17:55;99195.88;;;10.70;69.06
80759;BME280;70150;45.582;10.178;2023-11-21T07:20:20;99197.78;;;10.69;69.02
80759;BME280;70150;45.582;10.178;2023-11-21T07:22:46;99195.09;;;10.69;69.03
80759;BME280;70150;45.582;10.178;2023-11-21T07:25:12;99194.38;;;10.72;69.56
80759;BME280;70150;45.582;10.178;2023-11-21T07:27:38;99194.47;;;10.83;68.73
80759;BME280;70150;45.582;10.178;2023-11-21T07:30:04;99204.44;;;10.86;68.48
80759;BME280;70150;45.582;10.178;2023-11-21T07:32:31;99199.47;;;10.84;67.71
80759;BME280;70150;45.582;10.178;2023-11-21T07:34:56;99195.75;;;10.99;67.51
80759;BME280;70150;45.582;10.178;2023-11-21T07:37:24;99205.78;;;11.03;67.10
80759;BME280;70150;45.582;10.178;2023-11-21T07:39:51;99207.31;;;11.04;67.30
80759;BME280;70150;45.582;10.178;2023-11-21T07:42:23;99204.53;;;10.96;67.37
80759;BME280;70150;45.582;10.178;2023-11-21T07:44:49;99207.69;;;11.02;67.45
80759;BME280;70150;45.582;10.178;2023-11-21T07:47:16;99210.50;;;11.20;67.63
80759;BME280;70150;45.582;10.178;2023-11-21T07:49:41;99220.22;;;11.38;68.78
80759;BME280;70150;45.582;10.178;2023-11-21T07:52:09;99215.34;;;11.51;69.37
80759;BME280;70150;45.582;10.178;2023-11-21T07:54:37;99214.22;;;11.59;68.86
80759;BME280;70150;45.582;10.178;2023-11-21T07:57:03;99201.28;;;11.71;68.26
80759;BME280;70150;45.582;10.178;2023-11-21T07:59:29;99204.44;;;11.87;67.77
80759;BME280;70150;45.582;10.178;2023-11-21T08:01:56;99208.28;;;11.90;67.60
80759;BME280;70150;45.582;10.178;2023-11-21T08:04:24;99205.97;;;11.81;65.21
80759;BME280;70150;45.582;10.178;2023-11-21T08:06:49;99205.78;;;11.60;64.66
80759;BME280;70150;45.582;10.178;2023-11-21T08:09:15;99198.47;;;11.57;64.73
80759;BME280;70150;45.582;10.178;2023-11-21T08:11:42;99210.34;;;11.53;65.05
80759;BME280;70150;45.582;10.178;2023-11-21T08:14:08;99202.28;;;11.49;65.48
80759;BME280;70150;45.582;10.178;2023-11-21T08:16:34;99207.28;;;11.54;65.91
80759;BME280;70150;45.582;10.178;2023-11-21T08:18:59;99205.84;;;11.64;65.81
80759;BME280;70150;45.582;10.178;2023-11-21T08:21:25;99204.59;;;11.54;65.89
80759;BME280;70150;45.582;10.178;2023-11-21T08:23:54;99207.84;;;11.74;65.46
80759;BME280;70150;45.582;10.178;2023-11-21T08:26:21;99210.56;;;11.84;65.76
80759;BME280;70150;45.582;10.178;2023-11-21T08:28:48;99220.56;;;11.87;65.42
80759;BME280;70150;45.582;10.178;2023-11-21T08:31:13;99224.78;;;11.81;65.58
80759;BME280;70150;45.582;10.178;2023-11-21T08:33:39;99223.22;;;11.80;65.41
80759;BME280;70150;45.582;10.178;2023-11-21T08:36:08;99225.16;;;11.83;66.12
80759;BME280;70150;45.582;10.178;2023-11-21T08:38:34;99215.53;;;11.79;65.87
80759;BME280;70150;45.582;10.178;2023-11-21T08:41:07;99219.78;;;11.87;65.86
80759;BME280;70150;45.582;10.178;2023-11-21T08:43:35;99215.66;;;12.03;65.34
80759;BME280;70150;45.582;10.178;2023-11-21T08:46:01;99217.59;;;12.06;63.88
80759;BME280;70150;45.582;10.178;2023-11-21T08:48:27;99216.00;;;11.98;64.08
80759;BME280;70150;45.582;10.178;2023-11-21T08:50:55;99203.75;;;12.08;64.28
80759;BME280;70150;45.582;10.178;2023-11-21T08:53:20;99204.59;;;12.19;64.95
80759;BME280;70150;45.582;10.178;2023-11-21T08:55:47;99197.69;;;12.25;64.74
80759;BME280;70150;45.582;10.178;2023-11-21T08:58:13;99200.41;;;12.35;64.17
80759;BME280;70150;45.582;10.178;2023-11-21T09:00:39;99188.47;;;12.33;63.68
80759;BME280;70150;45.582;10.178;2023-11-21T09:03:05;99182.69;;;12.27;63.80
80759;BME280;70150;45.582;10.178;2023-11-21T09:05:37;99185.38;;;12.27;64.35
80759;BME280;70150;45.582;10.178;2023-11-21T09:08:04;99181.94;;;12.37;63.30
80759;BME280;70150;45.582;10.178;2023-11-21T09:10:29;99179.25;;;12.37;63.81
80759;BME280;70150;45.582;10.178;2023-11-21T09:12:55;99183.16;;;12.50;63.33
80759;BME280;70150;45.582;10.178;2023-11-21T09:15:21;99178.94;;;12.49;62.81
80759;BME280;70150;45.582;10.178;2023-11-21T09:17:47;99172.75;;;12.42;63.52
80759;BME280;70150;45.582;10.178;2023-11-21T09:20:16;99175.47;;;12.49;63.65
80759;BME280;70150;45.582;10.178;2023-11-21T09:22:42;99173.97;;;12.69;63.32
80759;BME280;70150;45.582;10.178;2023-11-21T09:25:10;99173.16;;;12.65;63.78
80759;BME280;70150;45.582;10.178;2023-11-21T09:27:38;99179.34;;;12.65;65.40
80759;BME280;70150;45.582;10.178;2023-11-21T09:30:04;99185.84;;;12.57;65.54
80759;BME280;70150;45.582;10.178;2023-11-21T09:32:31;99174.72;;;12.62;65.51
80759;BME280;70150;45.582;10.178;2023-11-21T09:34:56;99182.03;;;12.72;65.39
80759;BME280;70150;45.582;10.178;2023-11-21T09:37:24;99178.56;;;12.51;65.20
80759;BME280;70150;45.582;10.178;2023-11-21T09:39:50;99172.03;;;12.55;66.17
80759;BME280;70150;45.582;10.178;2023-11-21T09:42:22;99174.34;;;12.67;65.48
80759;BME280;70150;45.582;10.178;2023-11-21T09:47:21;99163.19;;;12.87;65.71
80759;BME280;70150;45.582;10.178;2023-11-21T09:49:48;99163.59;;;12.96;65.48
80759;BME280;70150;45.582;10.178;2023-11-21T09:52:22;99167.84;;;13.04;65.48
80759;BME280;70150;45.582;10.178;2023-11-21T09:54:52;99166.31;;;13.10;66.13
80759;BME280;70150;45.582;10.178;2023-11-21T09:57:20;99162.47;;;13.14;65.41
80759;BME280;70150;45.582;10.178;2023-11-21T09:59:51;99163.22;;;13.11;65.56
80759;BME280;70150;45.582;10.178;2023-11-21T10:02:22;99160.53;;;13.11;65.59
80759;BME280;70150;45.582;10.178;2023-11-21T10:04:51;99164.75;;;13.16;65.93
80759;BME280;70150;45.582;10.178;2023-11-21T10:07:19;99160.16;;;13.09;66.18
80759;BME280;70150;45.582;10.178;2023-11-21T10:09:46;99159.00;;;13.07;66.84
80759;BME280;70150;45.582;10.178;2023-11-21T10:12:15;99154.38;;;13.04;66.15
80759;BME280;70150;45.582;10.178;2023-11-21T10:14:41;99149.38;;;13.06;66.07
80759;BME280;70150;45.582;10.178;2023-11-21T10:17:08;99142.06;;;13.06;66.07
80759;BME280;70150;45.582;10.178;2023-11-21T10:19:38;99142.84;;;13.17;65.94
80759;BME280;70150;45.582;10.178;2023-11-21T10:22:05;99135.50;;;13.18;65.75
80759;BME280;70150;45.582;10.178;2023-11-21T10:24:32;99131.28;;;13.24;65.57
80759;BME280;70150;45.582;10.178;2023-11-21T10:26:58;99129.75;;;13.30;65.60
80759;BME280;70150;45.582;10.178;2023-11-21T10:29:29;99121.66;;;13.30;65.52
80759;BME280;70150;45.582;10.178;2023-11-21T10:31:55;99118.56;;;13.31;64.73
80759;BME280;70150;45.582;10.178;2023-11-21T10:34:24;99118.16;;;13.36;64.81
80759;BME280;70150;45.582;10.178;2023-11-21T10:36:52;99113.16;;;13.42;64.94
80759;BME280;70150;45.582;10.178;2023-11-21T10:39:19;99114.28;;;13.41;65.27
80759;BME280;70150;45.582;10.178;2023-11-21T10:41:46;99103.19;;;13.21;64.61
80759;BME280;70150;45.582;10.178;2023-11-21T10:44:15;99093.94;;;13.26;65.10
80759;BME280;70150;45.582;10.178;2023-11-21T10:46:47;99088.97;;;13.17;64.96
80759;BME280;70150;45.582;10.178;2023-11-21T10:49:17;99097.41;;;13.19;64.91
80759;BME280;70150;45.582;10.178;2023-11-21T10:51:43;99099.34;;;13.15;65.21
80759;BME280;70150;45.582;10.178;2023-11-21T10:54:09;99103.56;;;13.20;65.65
80759;BME280;70150;45.582;10.178;2023-11-21T10:56:36;99099.34;;;13.22;66.51
80759;BME280;70150;45.582;10.178;2023-11-21T10:59:09;99109.75;;;13.24;65.62
80759;BME280;70150;45.582;10.178;2023-11-21T11:01:36;99115.53;;;13.05;66.79
80759;BME280;70150;45.582;10.178;2023-11-21T11:04:03;99108.59;;;13.11;67.28
80759;BME280;70150;45.582;10.178;2023-11-21T11:06:31;99110.13;;;12.94;67.21
80759;BME280;70150;45.582;10.178;2023-11-21T11:08:59;99118.19;;;12.98;68.04
80759;BME280;70150;45.582;10.178;2023-11-21T11:11:28;99109.72;;;13.13;67.85
80759;BME280;70150;45.582;10.178;2023-11-21T11:13:55;99115.50;;;13.19;66.83
80759;BME280;70150;45.582;10.178;2023-11-21T11:16:22;99115.47;;;13.26;66.06
80759;BME280;70150;45.582;10.178;2023-11-21T11:18:50;99115.47;;;13.29;64.56
80759;BME280;70150;45.582;10.178;2023-11-21T11:21:25;99122.75;;;13.39;65.09
80759;BME280;70150;45.582;10.178;2023-11-21T11:26:37;99120.47;;;13.45;64.73
80759;BME280;70150;45.582;10.178;2023-11-21T11:34:23;99113.09;;;13.59;64.85
80759;BME280;70150;45.582;10.178;2023-11-21T11:36:59;99120.00;;;13.60;65.00
80759;BME280;70150;45.582;10.178;2023-11-21T11:41:58;99120.03;;;13.57;64.88
80759;BME280;70150;45.582;10.178;2023-11-21T11:46:56;99117.31;;;13.60;64.62
80759;BME280;70150;45.582;10.178;2023-11-21T11:49:24;99116.56;;;13.60;63.88
80759;BME280;70150;45.582;10.178;2023-11-21T11:56:54;99116.22;;;13.47;62.71
80759;BME280;70150;45.582;10.178;2023-11-21T11:59:20;99103.91;;;13.46;62.64
80759;BME280;70150;45.582;10.178;2023-11-21T12:01:46;99108.91;;;13.48;63.24
80759;BME280;70150;45.582;10.178;2023-11-21T12:06:42;99111.25;;;13.35;62.81
80759;BME280;70150;45.582;10.178;2023-11-21T12:11:47;99113.94;;;13.39;64.23
80759;BME280;70150;45.582;10.178;2023-11-21T12:14:14;99108.53;;;13.32;64.45
80759;BME280;70150;45.582;10.178;2023-11-21T12:16:40;99105.47;;;13.33;65.44
80759;BME280;70150;45.582;10.178;2023-11-21T12:19:06;99113.56;;;13.19;64.22
80759;BME280;70150;45.582;10.178;2023-11-21T12:21:32;99117.44;;;13.18;64.76
80759;BME280;70150;45.582;10.178;2023-11-21T12:23:58;99120.88;;;13.26;64.91
80759;BME280;70150;45.582;10.178;2023-11-21T12:26:24;99118.56;;;13.31;65.05
80759;BME280;70150;45.582;10.178;2023-11-21T12:28:53;99118.19;;;13.33;64.81
80759;BME280;70150;45.582;10.178;2023-11-21T12:31:23;99125.47;;;13.29;65.01
80759;BME280;70150;45.582;10.178;2023-11-21T12:33:49;99120.84;;;13.40;64.91
80759;BME280;70150;45.582;10.178;2023-11-21T12:36:15;99118.50;;;13.49;65.11
80759;BME280;70150;45.582;10.178;2023-11-21T12:38:41;99114.28;;;13.44;65.14
80759;BME280;70150;45.582;10.178;2023-11-21T12:41:10;99123.16;;;13.45;64.08
80759;BME280;70150;45.582;10.178;2023-11-21T12:43:35;99118.16;;;13.36;64.24
80759;BME280;70150;45.582;10.178;2023-11-21T12:46:06;99115.84;;;13.42;63.37
80759;BME280;70150;45.582;10.178;2023-11-21T12:48:32;99112.03;;;13.36;64.41
80759;BME280;70150;45.582;10.178;2023-11-21T12:50:58;99107.75;;;13.35;64.13
80759;BME280;70150;45.582;10.178;2023-11-21T12:53:26;99108.13;;;13.44;64.33
80759;BME280;70150;45.582;10.178;2023-11-21T12:55:51;99104.25;;;13.55;63.40
80759;BME280;70150;45.582;10.178;2023-11-21T12:58:17;99102.69;;;13.58;63.61
80759;BME280;70150;45.582;10.178;2023-11-21T13:00:47;99102.31;;;13.63;63.41
80759;BME280;70150;45.582;10.178;2023-11-21T13:03:14;99102.31;;;13.63;63.85
80759;BME280;70150;45.582;10.178;2023-11-21T13:05:44;99110.75;;;13.72;63.20
80759;BME280;70150;45.582;10.178;2023-11-21T13:08:12;99113.84;;;13.67;63.73
80759;BME280;70150;45.582;10.178;2023-11-21T13:10:41;99113.03;;;13.73;64.01
80759;BME280;70150;45.582;10.178;2023-11-21T13:13:10;99101.09;;;13.78;63.18